Time;durP1;ratioP1;P1;durP2;ratioP2;P2;SDS_P1;SDS_P2;PMS_P1;PMS_P2;Temp;Humidity;BMP_temperature;BMP_pressure;BME280_temperature;BME280_humidity;BME280_pressure;Samples;Min_cycle;Max_cycle;Signal;HPM_P1;HPM_P2
2021/09/03 00:00:24;;;;;;;5.45;1.00;;;;;;;18.83;37.96;99574.28;1748478;79;21035;-45
2021/09/03 00:02:50;;;;;;;1.42;0.70;;;;;;;18.83;38.02;99575.16;1746226;78;21723;-45
2021/09/03 00:05:19;;;;;;;2.40;1.10;;;;;;;18.82;38.06;99582.73;1720456;79;21098;-46
2021/09/03 00:07:46;;;;;;;1.20;0.78;;;;;;;18.83;38.07;99586.28;1728299;80;21229;-44
2021/09/03 00:10:14;;;;;;;1.47;0.80;;;;;;;18.81;38.10;99574.39;1731412;80;21120;-44
2021/09/03 00:12:43;;;;;;;1.40;0.93;;;;;;;18.81;38.14;99574.39;1732517;80;21295;-45
2021/09/03 00:15:12;;;;;;;4.05;0.80;;;;;;;18.81;38.13;99573.05;1717792;80;21492;-44
2021/09/03 00:17:39;;;;;;;1.77;0.82;;;;;;;18.81;38.18;99570.84;1744715;80;21182;-44
2021/09/03 00:20:07;;;;;;;1.12;0.80;;;;;;;18.80;38.22;99575.33;1747078;78;21040;-45
2021/09/03 00:22:33;;;;;;;1.17;1.02;;;;;;;18.80;38.22;99569.16;1714512;80;21232;-45
2021/09/03 00:25:01;;;;;;;0.62;0.60;;;;;;;18.81;38.22;99572.18;1739797;80;21553;-45
2021/09/03 00:27:28;;;;;;;3.02;0.70;;;;;;;18.80;38.26;99579.33;1716133;80;21051;-45
2021/09/03 00:29:54;;;;;;;1.80;0.60;;;;;;;18.81;38.30;99579.72;1748650;80;21221;-44
2021/09/03 00:32:21;;;;;;;1.67;0.70;;;;;;;18.80;38.37;99578.00;1739984;80;21510;-44
2021/09/03 00:34:48;;;;;;;0.93;0.50;;;;;;;18.80;38.39;99578.00;1714142;81;21132;-44
2021/09/03 00:37:15;;;;;;;0.75;0.70;;;;;;;18.80;38.41;99575.82;1741181;80;21016;-44
2021/09/03 00:39:42;;;;;;;0.62;0.62;;;;;;;18.79;38.46;99580.27;1724630;80;21076;-44
2021/09/03 00:42:10;;;;;;;1.17;0.70;;;;;;;18.79;38.49;99575.44;1712254;80;21130;-46
2021/09/03 00:44:38;;;;;;;2.50;0.72;;;;;;;18.79;38.54;99574.95;1741378;80;21393;-44
2021/09/03 00:47:04;;;;;;;0.70;0.70;;;;;;;18.79;38.55;99574.95;1716144;79;21802;-44
2021/09/03 00:49:31;;;;;;;1.27;0.78;;;;;;;18.79;38.60;99576.77;1711279;80;21119;-44
2021/09/03 00:51:59;;;;;;;1.15;0.60;;;;;;;18.77;38.61;99571.53;1759024;79;21476;-44
2021/09/03 00:54:25;;;;;;;0.80;0.80;;;;;;;18.77;38.61;99567.54;1749807;79;21024;-46
2021/09/03 00:56:51;;;;;;;1.82;0.60;;;;;;;18.78;38.63;99573.26;1733480;80;21032;-44
2021/09/03 00:59:18;;;;;;;1.00;0.78;;;;;;;18.78;38.62;99573.26;1723125;80;21220;-44
2021/09/03 01:01:46;;;;;;;1.70;0.80;;;;;;;18.76;38.61;99572.48;1747489;80;21579;-44
2021/09/03 01:04:13;;;;;;;1.37;0.70;;;;;;;18.76;38.74;99579.14;1717410;80;20982;-43
2021/09/03 01:06:41;;;;;;;1.30;0.80;;;;;;;18.74;38.76;99571.73;1739846;80;21168;-46
2021/09/03 01:09:08;;;;;;;1.12;0.62;;;;;;;18.69;38.82;99572.53;1709805;80;21469;-42
2021/09/03 01:11:36;;;;;;;1.32;0.80;;;;;;;18.63;38.79;99574.30;1742339;80;21127;-45
2021/09/03 01:14:02;;;;;;;1.10;1.00;;;;;;;18.59;38.74;99578.11;1745565;80;21503;-45
2021/09/03 01:16:30;;;;;;;0.70;0.70;;;;;;;18.53;38.76;99576.23;1761397;80;21126;-43
2021/09/03 01:18:57;;;;;;;0.60;0.60;;;;;;;18.47;38.82;99575.78;1723121;80;21670;-44
2021/09/03 01:21:23;;;;;;;1.20;0.82;;;;;;;18.41;38.89;99578.39;1750511;79;21107;-46
2021/09/03 01:23:50;;;;;;;2.27;0.80;;;;;;;18.36;38.96;99576.02;1743558;80;21090;-45
2021/09/03 01:26:16;;;;;;;0.95;0.80;;;;;;;18.32;39.02;99572.32;1756869;79;21157;-45
2021/09/03 01:28:43;;;;;;;1.95;0.60;;;;;;;18.28;39.02;99573.48;1723881;80;21250;-44
2021/09/03 01:31:10;;;;;;;1.15;0.80;;;;;;;18.22;39.11;99572.55;1684862;82;21618;-44
2021/09/03 01:33:36;;;;;;;1.27;0.95;;;;;;;18.18;39.14;99575.41;1752740;80;21035;-44
2021/09/03 01:36:03;;;;;;;0.80;0.80;;;;;;;18.15;39.19;99579.59;1721803;79;21156;-45
2021/09/03 01:38:30;;;;;;;0.88;0.72;;;;;;;18.11;39.25;99567.94;1721646;81;21015;-45
2021/09/03 01:40:56;;;;;;;1.57;0.57;;;;;;;18.08;39.27;99568.97;1713026;80;21040;-45
2021/09/03 01:43:22;;;;;;;0.70;0.70;;;;;;;18.06;39.31;99566.05;1755657;80;21997;-43
2021/09/03 01:45:49;;;;;;;2.62;0.85;;;;;;;18.03;39.32;99566.24;1759463;80;21136;-44
2021/09/03 01:48:15;;;;;;;0.62;0.62;;;;;;;18.00;39.38;99569.95;1709478;81;21056;-44
2021/09/03 01:50:42;;;;;;;1.12;0.80;;;;;;;17.97;39.42;99565.69;1737553;80;21146;-44
2021/09/03 01:53:08;;;;;;;1.02;0.70;;;;;;;17.94;39.45;99566.37;1729313;81;21044;-44
2021/09/03 01:55:34;;;;;;;1.22;0.70;;;;;;;17.91;39.52;99563.90;1685481;82;21101;-44
2021/09/03 01:58:01;;;;;;;2.05;0.90;;;;;;;17.87;39.53;99565.91;1757355;80;21544;-46
2021/09/03 02:00:28;;;;;;;2.08;0.95;;;;;;;17.82;39.62;99566.16;1709934;81;21148;-47
2021/09/03 02:02:54;;;;;;;0.88;0.85;;;;;;;17.79;39.66;99561.03;1753985;80;21086;-45
2021/09/03 02:05:20;;;;;;;3.12;0.80;;;;;;;17.74;39.71;99560.47;1727862;81;21050;-44
2021/09/03 02:07:47;;;;;;;1.25;0.82;;;;;;;17.72;39.78;99565.05;1753440;80;21218;-44
2021/09/03 02:10:13;;;;;;;0.80;0.80;;;;;;;17.68;39.86;99564.84;1708578;81;21122;-45
2021/09/03 02:12:40;;;;;;;1.27;1.05;;;;;;;17.68;39.88;99565.33;1734152;80;23353;-45
2021/09/03 02:15:08;;;;;;;1.70;0.78;;;;;;;17.66;39.87;99564.58;1754941;80;20993;-43
2021/09/03 02:17:36;;;;;;;2.42;1.20;;;;;;;17.64;39.93;99568.66;1731933;80;21079;-44
2021/09/03 02:20:05;;;;;;;2.83;1.02;;;;;;;17.62;39.96;99571.90;1737194;80;21020;-44
2021/09/03 02:22:32;;;;;;;0.68;0.62;;;;;;;17.60;39.98;99565.80;1741024;79;21103;-45
2021/09/03 02:24:58;;;;;;;1.30;0.90;;;;;;;17.58;39.98;99567.70;1718585;80;22316;-44
2021/09/03 02:27:24;;;;;;;1.30;0.68;;;;;;;17.56;40.03;99569.61;1720950;81;21072;-44
2021/09/03 02:29:51;;;;;;;0.72;0.60;;;;;;;17.53;40.07;99564.48;1751065;80;21131;-44
2021/09/03 02:32:19;;;;;;;1.25;0.80;;;;;;;17.52;40.05;99572.10;1734704;79;21103;-45
2021/09/03 02:34:47;;;;;;;1.17;0.70;;;;;;;17.49;40.10;99578.45;1725657;80;21056;-43
2021/09/03 02:37:14;;;;;;;1.12;0.70;;;;;;;17.48;40.10;99575.88;1737527;80;21748;-43
2021/09/03 02:39:41;;;;;;;1.60;0.88;;;;;;;17.43;40.16;99575.71;1739538;80;21029;-44
2021/09/03 02:42:08;;;;;;;0.62;0.62;;;;;;;17.42;40.20;99576.65;1714220;80;21016;-45
2021/09/03 02:44:35;;;;;;;1.62;1.00;;;;;;;17.38;40.23;99572.48;1739070;80;21039;-43
2021/09/03 02:47:01;;;;;;;1.32;0.78;;;;;;;17.39;40.26;99580.82;1732610;79;21098;-43
2021/09/03 02:49:28;;;;;;;1.32;0.88;;;;;;;17.37;40.27;99577.41;1724817;80;21066;-45
2021/09/03 02:51:54;;;;;;;1.25;0.90;;;;;;;17.36;40.29;99579.67;1721998;80;21879;-44
2021/09/03 02:54:21;;;;;;;2.35;1.02;;;;;;;17.35;40.32;99576.66;1741501;79;21080;-45
2021/09/03 02:56:48;;;;;;;2.20;0.82;;;;;;;17.35;40.32;99577.98;1748451;80;21064;-45
2021/09/03 02:59:15;;;;;;;1.77;0.70;;;;;;;17.34;40.32;99578.92;1754257;80;21149;-44
2021/09/03 03:01:42;;;;;;;0.78;0.70;;;;;;;17.33;40.31;99581.22;1754524;78;21106;-44
2021/09/03 03:04:08;;;;;;;7.83;0.90;;;;;;;17.31;40.32;99572.45;1730770;80;21609;-44
2021/09/03 03:06:35;;;;;;;1.35;0.95;;;;;;;17.30;40.37;99577.41;1727381;81;21877;-46
2021/09/03 03:09:01;;;;;;;0.82;0.80;;;;;;;17.29;40.36;99578.36;1705882;81;21187;-44
2021/09/03 03:11:30;;;;;;;1.27;0.80;;;;;;;17.27;40.38;99575.78;1748560;80;21159;-44
2021/09/03 03:14:03;;;;;;;2.30;0.95;;;;;;;17.28;40.37;99579.29;1722133;81;21534;-45
2021/09/03 03:16:25;;;;;;;1.47;0.80;;;;;;;17.27;40.39;99584.25;1695620;82;21979;-43
2021/09/03 03:18:52;;;;;;;1.12;1.02;;;;;;;17.26;40.42;99577.20;1681261;81;21047;-45
2021/09/03 03:21:20;;;;;;;0.70;0.70;;;;;;;17.23;40.46;99578.72;1715128;81;21068;-45
2021/09/03 03:23:47;;;;;;;1.50;0.90;;;;;;;17.23;40.45;99579.59;1697685;81;20909;-43
2021/09/03 03:26:13;;;;;;;1.37;0.93;;;;;;;17.21;40.48;99584.61;1728151;81;21085;-46
2021/09/03 03:28:40;;;;;;;0.90;0.90;;;;;;;17.19;40.51;99583.86;1677515;83;21533;-44
2021/09/03 03:31:06;;;;;;;2.17;0.70;;;;;;;17.18;40.53;99580.36;1656935;83;21101;-43
2021/09/03 03:33:33;;;;;;;0.75;0.70;;;;;;;17.16;40.57;99584.88;1731853;80;21811;-44
2021/09/03 03:36:01;;;;;;;1.57;1.00;;;;;;;17.16;40.57;99580.89;1753580;80;21087;-44
2021/09/03 03:38:28;;;;;;;1.60;1.10;;;;;;;17.19;40.58;99578.54;1715267;80;21115;-43
2021/09/03 03:40:54;;;;;;;3.17;0.70;;;;;;;17.24;40.51;99573.80;1719315;80;21550;-44
2021/09/03 03:43:20;;;;;;;2.85;0.90;;;;;;;17.31;40.45;99583.58;1743137;80;21060;-43
2021/09/03 03:45:47;;;;;;;2.27;1.02;;;;;;;17.36;40.33;99578.34;1745986;80;21035;-44
2021/09/03 03:48:13;;;;;;;4.62;1.10;;;;;;;17.43;40.21;99585.02;1743204;80;20967;-43
2021/09/03 03:50:40;;;;;;;3.08;1.30;;;;;;;17.51;40.10;99580.53;1705755;80;22096;-43
2021/09/03 03:53:11;;;;;;;4.00;0.88;;;;;;;17.59;40.01;99590.22;1709637;82;21140;-46
2021/09/03 03:55:36;;;;;;;1.35;1.10;;;;;;;17.67;39.87;99581.77;1739678;80;21029;-43
2021/09/03 03:58:03;;;;;;;2.12;1.10;;;;;;;17.74;39.74;99581.76;1728077;80;21150;-45
2021/09/03 04:00:30;;;;;;;2.65;1.10;;;;;;;17.82;39.63;99586.12;1707423;80;21136;-47
2021/09/03 04:02:56;;;;;;;1.12;0.93;;;;;;;17.91;39.49;99585.19;1747586;80;21556;-44
2021/09/03 04:05:22;;;;;;;4.58;1.00;;;;;;;17.99;39.39;99584.23;1746603;80;21111;-44
2021/09/03 04:07:49;;;;;;;3.15;1.20;;;;;;;18.04;39.25;99583.45;1729771;80;21091;-46
2021/09/03 04:10:17;;;;;;;2.80;1.02;;;;;;;18.10;39.16;99580.38;1734007;79;21137;-43
2021/09/03 04:12:45;;;;;;;1.85;0.85;;;;;;;18.18;39.03;99586.06;1704592;81;21494;-44
2021/09/03 04:15:11;;;;;;;1.50;0.98;;;;;;;18.24;38.93;99577.29;1651878;82;22453;-45
2021/09/03 04:17:39;;;;;;;2.30;0.90;;;;;;;18.30;38.80;99575.56;1685636;83;21035;-45
2021/09/03 04:20:07;;;;;;;2.90;0.98;;;;;;;18.36;38.67;99576.02;1671644;81;20997;-45
2021/09/03 04:22:35;;;;;;;2.72;1.17;;;;;;;18.42;38.60;99580.08;1705025;81;22226;-45
2021/09/03 04:25:01;;;;;;;3.22;1.17;;;;;;;18.49;38.53;99577.41;1711339;81;20994;-46
2021/09/03 04:27:28;;;;;;;4.22;1.02;;;;;;;18.57;38.44;99580.38;1728449;80;21125;-44
2021/09/03 04:29:54;;;;;;;1.95;1.00;;;;;;;18.67;38.26;99577.12;1722904;81;21590;-44
2021/09/03 04:32:20;;;;;;;2.85;1.05;;;;;;;18.73;38.14;99574.05;1748291;80;21032;-44
2021/09/03 04:34:47;;;;;;;4.28;1.32;;;;;;;18.81;38.07;99573.05;1743829;79;21088;-44
2021/09/03 04:37:14;;;;;;;3.42;1.05;;;;;;;18.86;37.97;99570.96;1716713;80;21002;-44
2021/09/03 04:39:40;;;;;;;4.62;1.40;;;;;;;18.93;37.88;99576.73;1743055;80;22695;-45
2021/09/03 04:42:07;;;;;;;2.35;1.27;;;;;;;18.96;37.79;99571.16;1713879;81;21158;-48
2021/09/03 04:44:34;;;;;;;2.02;0.98;;;;;;;19.00;37.83;99571.83;1667427;83;20958;-50
2021/09/03 04:47:00;;;;;;;3.12;1.20;;;;;;;19.01;38.08;99574.36;1689229;82;21113;-45
2021/09/03 04:49:27;;;;;;;2.90;1.40;;;;;;;19.03;38.25;99572.92;1676034;82;21065;-46
2021/09/03 04:51:54;;;;;;;2.67;1.30;;;;;;;19.06;38.41;99576.72;1683652;82;21203;-46
2021/09/03 04:54:20;;;;;;;7.45;1.00;;;;;;;19.09;38.44;99579.18;1720849;81;21037;-48
2021/09/03 04:56:46;;;;;;;3.25;1.30;;;;;;;19.12;38.43;99573.15;1741399;79;21105;-49
2021/09/03 04:59:13;;;;;;;2.67;0.82;;;;;;;19.15;38.47;99581.44;1702690;82;21040;-48
2021/09/03 05:01:39;;;;;;;4.42;1.57;;;;;;;19.17;38.71;99579.51;1708022;81;20993;-47
2021/09/03 05:04:06;;;;;;;1.80;0.98;;;;;;;19.21;38.87;99586.32;1689195;82;21187;-47
2021/09/03 05:06:32;;;;;;;2.50;1.37;;;;;;;19.27;39.18;99580.57;1696156;81;20985;-47
2021/09/03 05:09:00;;;;;;;2.40;1.07;;;;;;;19.39;39.21;99584.69;1697576;81;20998;-43
2021/09/03 05:11:26;;;;;;;12.33;0.95;;;;;;;19.52;39.13;99580.19;1702302;81;21001;-44
2021/09/03 05:13:53;;;;;;;1.77;0.95;;;;;;;19.64;39.21;99580.64;1650568;84;22128;-45
2021/09/03 05:16:19;;;;;;;1.35;0.90;;;;;;;19.77;39.21;99579.78;1738147;80;22252;-46
2021/09/03 05:18:47;;;;;;;1.87;0.90;;;;;;;19.90;39.23;99579.77;1742275;80;21104;-47
2021/09/03 05:21:14;;;;;;;4.35;1.00;;;;;;;20.00;39.18;99581.64;1723080;80;21047;-46
2021/09/03 05:23:40;;;;;;;2.67;0.82;;;;;;;20.12;39.40;99579.05;1731989;80;21130;-47
2021/09/03 05:26:06;;;;;;;1.77;1.15;;;;;;;20.22;39.68;99578.74;1737280;80;20963;-45
2021/09/03 05:28:32;;;;;;;13.88;2.10;;;;;;;20.32;39.71;99578.42;1731867;80;21093;-47
2021/09/03 05:30:59;;;;;;;1.20;0.80;;;;;;;20.39;39.70;99573.48;1705446;81;21077;-47
2021/09/03 05:33:25;;;;;;;4.22;0.60;;;;;;;20.49;39.69;99577.66;1705581;80;21040;-44
2021/09/03 05:35:51;;;;;;;8.88;0.80;;;;;;;20.56;39.70;99582.91;1723390;80;21527;-44
2021/09/03 05:38:18;;;;;;;0.78;0.78;;;;;;;20.63;39.81;99572.63;1731328;81;21015;-45
2021/09/03 05:40:44;;;;;;;1.00;0.85;;;;;;;20.70;40.05;99574.74;1734849;80;21051;-44
2021/09/03 05:43:10;;;;;;;5.50;0.72;;;;;;;20.77;39.94;99579.98;1734032;80;20903;-43
2021/09/03 05:45:37;;;;;;;4.12;1.10;;;;;;;20.82;39.70;99568.09;1702095;80;21045;-43
2021/09/03 05:48:04;;;;;;;1.10;0.75;;;;;;;20.87;39.55;99572.61;1733975;80;21073;-41
2021/09/03 05:50:30;;;;;;;4.97;0.90;;;;;;;20.90;39.74;99571.88;1729273;80;21521;-43
2021/09/03 05:52:57;;;;;;;1.57;0.80;;;;;;;20.95;40.11;99571.54;1713563;80;21919;-43
2021/09/03 05:55:24;;;;;;;1.72;0.88;;;;;;;21.01;40.05;99571.54;1716917;80;21011;-43
2021/09/03 05:57:53;;;;;;;2.67;0.62;;;;;;;21.03;39.90;99567.80;1696020;80;21082;-43
2021/09/03 06:00:19;;;;;;;7.75;0.72;;;;;;;21.06;39.79;99570.20;1729316;80;21079;-44
2021/09/03 06:02:45;;;;;;;1.10;0.60;;;;;;;21.11;39.64;99570.70;1725934;80;21078;-43
2021/09/03 06:05:13;;;;;;;1.98;0.85;;;;;;;21.15;39.50;99568.16;1735033;79;21078;-42
2021/09/03 06:07:40;;;;;;;2.10;0.88;;;;;;;21.18;39.35;99571.07;1740725;80;20956;-42
2021/09/03 06:10:07;;;;;;;2.35;0.68;;;;;;;21.22;39.25;99563.69;1720572;80;21037;-43
2021/09/03 06:12:33;;;;;;;1.30;0.90;;;;;;;21.26;39.14;99567.81;1694758;81;20993;-43
2021/09/03 06:15:01;;;;;;;3.50;0.80;;;;;;;21.28;39.05;99564.52;1702004;81;20908;-42
2021/09/03 06:17:29;;;;;;;1.27;0.80;;;;;;;21.32;38.97;99567.34;1737726;80;21079;-45
2021/09/03 06:19:56;;;;;;;1.67;0.80;;;;;;;21.34;38.88;99562.21;1722447;81;21034;-42
2021/09/03 06:22:24;;;;;;;3.20;0.70;;;;;;;21.39;38.84;99566.37;1728698;80;21066;-42
2021/09/03 06:24:51;;;;;;;1.70;0.85;;;;;;;21.40;38.77;99556.88;1746455;80;21049;-43
2021/09/03 06:27:17;;;;;;;4.33;0.90;;;;;;;21.44;39.33;99554.81;1732430;80;21118;-44
2021/09/03 06:29:45;;;;;;;4.42;0.90;;;;;;;21.47;39.55;99551.43;1755839;80;21251;-44
2021/09/03 06:32:16;;;;;;;3.27;0.78;;;;;;;21.50;39.42;99556.55;1743319;80;21016;-45
2021/09/03 06:34:47;;;;;;;0.53;0.53;;;;;;;21.52;39.34;99555.93;1724247;80;21126;-45
2021/09/03 06:37:14;;;;;;;2.62;0.80;;;;;;;21.55;39.20;99556.66;1745049;80;21052;-43
2021/09/03 06:39:40;;;;;;;3.90;0.95;;;;;;;21.58;39.24;99553.73;1733383;80;21094;-46
2021/09/03 06:42:07;;;;;;;1.90;0.70;;;;;;;21.59;39.50;99555.45;1725161;80;22790;-49
2021/09/03 06:44:34;;;;;;;3.33;0.90;;;;;;;21.62;39.62;99551.16;1705535;80;21027;-48
2021/09/03 06:47:01;;;;;;;1.10;0.80;;;;;;;21.64;39.75;99553.26;1696888;81;21005;-45
2021/09/03 06:49:28;;;;;;;1.52;0.70;;;;;;;21.68;39.74;99554.70;1678181;83;21210;-47
2021/09/03 06:51:55;;;;;;;1.20;0.60;;;;;;;21.71;39.72;99551.78;1733849;80;21066;-47
2021/09/03 06:54:21;;;;;;;1.82;0.80;;;;;;;21.76;39.71;99556.27;1705918;80;21059;-47
2021/09/03 06:56:47;;;;;;;1.30;0.70;;;;;;;21.80;39.80;99555.53;1700580;81;21090;-47
2021/09/03 06:59:14;;;;;;;9.13;1.00;;;;;;;21.83;39.92;99560.16;1701912;81;21410;-47
2021/09/03 07:01:40;;;;;;;2.17;0.70;;;;;;;21.87;39.99;99552.25;1672327;83;21003;-48
2021/09/03 07:04:06;;;;;;;3.25;0.72;;;;;;;21.93;40.01;99556.74;1674075;83;21096;-46
2021/09/03 07:06:33;;;;;;;2.87;0.70;;;;;;;21.97;40.08;99556.38;1674474;83;21122;-45
2021/09/03 07:08:59;;;;;;;7.03;1.15;;;;;;;22.04;40.03;99554.02;1648616;84;21042;-48
2021/09/03 07:11:26;;;;;;;2.60;0.80;;;;;;;22.10;39.99;99561.56;1676266;83;21014;-49
2021/09/03 07:13:52;;;;;;;2.10;0.90;;;;;;;22.14;40.04;99552.31;1674536;82;21072;-46
2021/09/03 07:16:20;;;;;;;3.80;0.90;;;;;;;22.21;39.99;99549.48;1725987;81;21031;-46
2021/09/03 07:18:49;;;;;;;1.00;0.72;;;;;;;22.26;39.91;99547.77;1700288;81;21110;-47
2021/09/03 07:21:15;;;;;;;4.92;1.42;;;;;;;22.32;39.95;99540.56;1733008;80;20980;-47
2021/09/03 07:23:43;;;;;;;8.23;1.27;;;;;;;22.36;39.98;99540.69;1728349;80;21858;-48
2021/09/03 07:26:09;;;;;;;7.05;0.65;;;;;;;22.44;39.88;99540.03;1739508;80;21186;-48
2021/09/03 07:28:35;;;;;;;4.33;0.70;;;;;;;22.49;39.81;99547.20;1736214;80;21119;-48
2021/09/03 07:31:02;;;;;;;1.85;0.80;;;;;;;22.52;39.80;99544.27;1731301;80;21882;-46
2021/09/03 07:33:28;;;;;;;5.42;0.90;;;;;;;22.56;39.84;99535.00;1736561;80;21012;-43
2021/09/03 07:35:55;;;;;;;2.05;0.90;;;;;;;22.61;39.93;99539.48;1734345;80;21588;-45
2021/09/03 07:38:21;;;;;;;3.33;0.90;;;;;;;22.65;39.89;99533.36;1737807;80;21012;-43
2021/09/03 07:40:49;;;;;;;2.05;0.62;;;;;;;22.67;39.96;99534.08;1735147;80;21427;-44
2021/09/03 07:43:16;;;;;;;3.92;0.82;;;;;;;22.71;39.94;99531.98;1730184;80;21105;-45
2021/09/03 07:45:42;;;;;;;7.50;0.90;;;;;;;22.75;40.01;99536.13;1708944;81;20965;-43
2021/09/03 07:48:09;;;;;;;3.17;1.00;;;;;;;22.78;40.00;99527.81;1714301;81;21062;-44
2021/09/03 07:50:36;;;;;;;6.10;0.95;;;;;;;22.83;39.97;99520.22;1728785;80;21083;-43
2021/09/03 07:53:03;;;;;;;2.30;0.60;;;;;;;22.89;39.94;99521.52;1721916;80;21029;-42
2021/09/03 07:55:30;;;;;;;2.55;0.90;;;;;;;22.94;39.81;99520.63;1732644;80;22238;-41
2021/09/03 07:57:56;;;;;;;2.30;0.95;;;;;;;23.00;39.80;99512.06;1726196;80;21058;-42
2021/09/03 08:00:22;;;;;;;2.60;0.70;;;;;;;23.05;39.71;99510.30;1728992;80;21989;-43
2021/09/03 08:02:49;;;;;;;7.40;0.80;;;;;;;23.10;39.63;99512.99;1734055;79;21098;-41
2021/09/03 08:05:15;;;;;;;4.65;1.07;;;;;;;23.15;39.54;99516.62;1709758;80;21032;-43
2021/09/03 08:07:42;;;;;;;0.80;0.68;;;;;;;23.21;39.48;99504.48;1725665;81;21142;-44
2021/09/03 08:10:12;;;;;;;3.70;0.80;;;;;;;23.27;39.39;99502.62;1724626;81;21000;-43
2021/09/03 08:12:39;;;;;;;2.45;0.60;;;;;;;23.32;39.28;99505.75;1708942;80;21039;-42
2021/09/03 08:15:08;;;;;;;1.30;0.60;;;;;;;23.36;39.23;99505.31;1729305;80;22029;-43
2021/09/03 08:17:35;;;;;;;2.77;1.00;;;;;;;23.43;39.18;99506.13;1735650;80;21055;-44
2021/09/03 08:20:02;;;;;;;2.25;0.90;;;;;;;23.47;39.17;99500.83;1728780;80;21981;-43
2021/09/03 08:22:30;;;;;;;1.82;0.80;;;;;;;23.50;39.16;99492.03;1725340;81;21552;-42
2021/09/03 08:24:57;;;;;;;3.00;0.80;;;;;;;23.54;39.19;99493.45;1704389;80;21135;-41
2021/09/03 08:27:24;;;;;;;4.65;0.85;;;;;;;23.60;39.15;99486.66;1727899;80;21023;-41
2021/09/03 08:29:52;;;;;;;7.35;0.80;;;;;;;23.64;39.20;99485.42;1731082;80;22065;-41
2021/09/03 08:32:18;;;;;;;4.15;0.90;;;;;;;23.70;39.25;99489.38;1705040;81;21060;-42
2021/09/03 08:34:45;;;;;;;4.62;0.98;;;;;;;23.77;39.24;99491.02;1698767;81;21047;-41
2021/09/03 08:37:12;;;;;;;6.55;0.90;;;;;;;23.80;39.32;99484.88;1673490;83;21069;-42
2021/09/03 08:39:38;;;;;;;5.37;1.07;;;;;;;23.84;39.67;99476.06;1686647;82;21530;-42
2021/09/03 08:42:06;;;;;;;3.60;0.90;;;;;;;23.89;39.77;99479.22;1726363;80;21023;-41
2021/09/03 08:44:33;;;;;;;7.65;1.10;;;;;;;23.94;39.83;99474.27;1698451;80;22305;-41
2021/09/03 08:47:00;;;;;;;5.42;1.17;;;;;;;23.98;39.76;99471.64;1709889;81;21038;-41
2021/09/03 08:49:27;;;;;;;5.45;0.93;;;;;;;24.03;39.66;99470.72;1741191;80;21132;-40
2021/09/03 08:51:56;;;;;;;5.55;1.35;;;;;;;24.08;39.60;99481.06;1724805;80;21074;-42
2021/09/03 08:54:23;;;;;;;3.77;0.85;;;;;;;24.13;39.44;99468.55;1662893;82;22096;-42
2021/09/03 08:56:49;;;;;;;3.60;0.85;;;;;;;24.18;39.39;99470.31;1726458;80;21123;-41
2021/09/03 08:59:16;;;;;;;4.67;0.98;;;;;;;24.22;39.23;99472.56;1735840;80;21367;-41
2021/09/03 09:01:42;;;;;;;6.75;1.00;;;;;;;24.26;39.18;99478.02;1706419;81;21190;-42
2021/09/03 09:04:14;;;;;;;2.72;0.70;;;;;;;24.30;39.02;99477.23;1723114;80;21056;-42
2021/09/03 09:07:04;;;;;;;4.15;0.78;;;;;;;24.35;37.83;99474.13;1699603;80;21075;-41
2021/09/03 09:09:32;;;;;;;2.58;0.70;;;;;;;24.36;36.08;99467.27;1738379;80;21096;-43
2021/09/03 09:12:12;;;;;;;3.22;0.50;;;;;;;24.34;34.92;99465.19;1701917;81;21098;-41
2021/09/03 09:15:07;;;;;;;0.78;0.55;;;;;;;24.32;34.29;99467.18;1715651;80;20992;-42
2021/09/03 09:17:40;;;;;;;1.92;0.50;;;;;;;24.28;34.07;99456.38;1712864;80;21034;-41
2021/09/03 09:20:12;;;;;;;6.15;0.57;;;;;;;24.26;33.42;99461.05;1706000;81;22015;-41
2021/09/03 09:22:57;;;;;;;1.67;0.80;;;;;;;24.23;33.54;99455.95;1735899;80;22005;-42
2021/09/03 09:25:27;;;;;;;1.90;0.55;;;;;;;24.19;33.84;99445.11;1729342;80;21103;-42
2021/09/03 09:27:54;;;;;;;0.50;0.50;;;;;;;24.16;33.78;99452.98;1677564;82;21388;-42
2021/09/03 09:30:25;;;;;;;8.65;0.70;;;;;;;24.14;33.52;99446.04;1734728;80;21014;-41
2021/09/03 09:33:17;;;;;;;2.98;0.70;;;;;;;24.14;33.55;99454.10;1730759;80;21063;-43
2021/09/03 09:35:57;;;;;;;1.77;0.60;;;;;;;24.11;33.22;99456.09;1736446;80;21107;-44
2021/09/03 09:38:30;;;;;;;4.15;1.00;;;;;;;24.07;33.53;99445.28;1723869;80;20904;-43
2021/09/03 09:41:03;;;;;;;10.05;4.53;;;;;;;24.04;33.95;99444.22;1722238;79;20972;-43
2021/09/03 09:43:42;;;;;;;4.60;2.00;;;;;;;24.01;34.39;99443.66;1719401;80;21055;-43
2021/09/03 09:46:27;;;;;;;3.45;1.07;;;;;;;23.97;34.34;99440.38;1702594;80;21058;-42
2021/09/03 09:48:57;;;;;;;6.17;3.37;;;;;;;23.92;34.88;99440.81;1711602;81;21132;-43
2021/09/03 09:51:29;;;;;;;5.20;2.87;;;;;;;23.89;34.83;99438.91;1692130;81;21013;-43
2021/09/03 09:54:14;;;;;;;9.50;4.80;;;;;;;23.84;34.98;99436.64;1730913;80;22128;-43
2021/09/03 09:56:56;;;;;;;15.05;7.00;;;;;;;23.81;35.55;99436.04;1717925;80;21380;-43
2021/09/03 09:59:25;;;;;;;4.12;3.60;;;;;;;23.80;35.55;99433.83;1690647;81;21025;-43
2021/09/03 10:01:55;;;;;;;20.62;9.75;;;;;;;23.79;35.28;99436.65;1721542;80;21835;-44
2021/09/03 10:04:27;;;;;;;27.50;13.60;;;;;;;23.80;35.31;99447.77;1708288;81;21106;-43
2021/09/03 10:06:59;;;;;;;20.68;9.13;;;;;;;23.79;34.93;99425.91;1735159;80;28043;-45
2021/09/03 10:09:31;;;;;;;13.25;6.78;;;;;;;23.80;34.52;99425.77;1722332;81;21028;-42
2021/09/03 10:11:59;;;;;;;10.75;5.92;;;;;;;23.82;34.52;99422.50;1701418;80;21019;-43
2021/09/03 10:14:27;;;;;;;9.33;5.47;;;;;;;23.81;34.33;99423.95;1717419;81;21822;-44
2021/09/03 10:16:57;;;;;;;10.03;5.87;;;;;;;23.82;34.02;99425.66;1728553;80;20949;-42
2021/09/03 10:19:30;;;;;;;8.58;4.70;;;;;;;23.83;33.93;99422.84;1722222;80;21734;-44
2021/09/03 10:22:13;;;;;;;7.28;3.42;;;;;;;23.85;33.79;99421.36;1692175;82;20870;-43
2021/09/03 10:24:43;;;;;;;6.90;4.05;;;;;;;23.85;33.67;99417.33;1656543;83;21580;-43
2021/09/03 10:27:10;;;;;;;9.70;4.05;;;;;;;23.86;34.00;99412.31;1668124;82;21140;-43
2021/09/03 10:29:41;;;;;;;4.72;3.10;;;;;;;23.87;33.83;99404.12;1707330;81;22003;-42
2021/09/03 10:32:10;;;;;;;4.20;2.87;;;;;;;23.90;33.48;99405.16;1684204;83;21032;-43
2021/09/03 10:34:51;;;;;;;2.85;2.00;;;;;;;23.92;33.47;99403.20;1699747;81;21047;-43
2021/09/03 10:37:28;;;;;;;3.10;2.20;;;;;;;23.93;32.66;99388.75;1702682;81;22002;-43
2021/09/03 10:40:15;;;;;;;3.67;1.90;;;;;;;23.92;32.67;99395.61;1672238;82;21085;-43
2021/09/03 10:42:47;;;;;;;2.55;1.70;;;;;;;23.89;32.70;99403.48;1682643;82;21016;-43
2021/09/03 10:45:34;;;;;;;2.12;1.77;;;;;;;23.89;32.75;99399.95;1668938;82;20990;-44
2021/09/03 10:48:12;;;;;;;2.37;1.72;;;;;;;23.90;32.89;99390.87;1675507;83;21021;-42
2021/09/03 10:50:50;;;;;;;6.08;1.30;;;;;;;23.91;33.22;99393.94;1681883;82;21057;-44
2021/09/03 10:53:37;;;;;;;3.10;1.70;;;;;;;23.94;33.00;99393.66;1697900;82;21129;-45
2021/09/03 10:56:27;;;;;;;2.12;1.42;;;;;;;23.99;32.67;99387.83;1718850;81;21979;-43
2021/09/03 10:58:55;;;;;;;7.37;1.55;;;;;;;24.01;32.46;99388.05;1671039;83;21654;-44
2021/09/03 11:01:27;;;;;;;4.17;1.40;;;;;;;24.05;32.64;99392.14;1662516;83;21081;-43
2021/09/03 11:04:08;;;;;;;2.05;1.30;;;;;;;24.06;32.58;99377.72;1727075;80;20995;-43
2021/09/03 11:06:37;;;;;;;3.77;1.25;;;;;;;24.08;32.41;99379.77;1701076;82;22235;-42
2021/09/03 11:09:17;;;;;;;4.60;1.37;;;;;;;24.11;32.24;99375.45;1682377;82;21580;-44
2021/09/03 11:11:48;;;;;;;3.65;1.77;;;;;;;24.14;32.28;99380.19;1700402;81;21022;-43
2021/09/03 11:14:18;;;;;;;3.87;1.50;;;;;;;24.16;32.43;99372.81;1719513;81;21017;-42
2021/09/03 11:16:53;;;;;;;6.85;1.57;;;;;;;24.19;32.52;99375.22;1713175;81;21401;-43
2021/09/03 11:19:36;;;;;;;2.98;1.25;;;;;;;24.22;32.33;99369.56;1660426;83;21100;-44
2021/09/03 11:22:09;;;;;;;25.02;3.60;;;;;;;24.23;32.25;99368.08;1708358;81;20952;-45
2021/09/03 11:24:41;;;;;;;9.33;2.77;;;;;;;24.24;32.43;99358.16;1726180;80;21089;-46
2021/09/03 11:27:11;;;;;;;6.42;2.60;;;;;;;24.26;32.60;99358.89;1718937;80;21072;-45
2021/09/03 11:29:50;;;;;;;31.87;3.40;;;;;;;24.27;31.94;99361.91;1720763;81;21467;-45
2021/09/03 11:32:20;;;;;;;11.88;1.80;;;;;;;24.25;32.01;99352.64;1724703;80;21115;-45
2021/09/03 11:35:00;;;;;;;5.50;1.80;;;;;;;24.25;31.63;99346.42;1725540;80;21066;-45
2021/09/03 11:37:44;;;;;;;102.60;8.98;;;;;;;24.22;31.70;99345.37;1706479;80;21013;-45
2021/09/03 11:40:23;;;;;;;43.55;4.78;;;;;;;24.23;31.89;99345.73;1722965;80;20988;-46